createdAt,value
2022-11-29T00:00:03.029Z,5.81
2022-11-29T00:02:52.223Z,5.84
2022-11-29T00:05:37.520Z,5.70
2022-11-29T00:08:23.889Z,5.90
2022-11-29T00:11:35.360Z,5.84
2022-11-29T00:14:21.902Z,5.90
2022-11-29T00:17:07.542Z,5.85
2022-11-29T00:19:52.568Z,5.75
2022-11-29T00:22:38.067Z,5.73
2022-11-29T00:25:23.220Z,5.86
2022-11-29T00:28:08.433Z,5.78
2022-11-29T00:30:53.564Z,5.80
2022-11-29T00:33:38.872Z,5.64
2022-11-29T00:36:24.295Z,5.65
2022-11-29T00:39:11.941Z,5.53
2022-11-29T00:41:57.629Z,5.55
2022-11-29T00:44:42.970Z,5.65
2022-11-29T00:47:28.341Z,5.69
2022-11-29T00:50:13.589Z,5.63
2022-11-29T00:52:58.764Z,5.52
2022-11-29T00:55:45.413Z,5.53
2022-11-29T00:58:31.279Z,5.43
2022-11-29T01:01:16.575Z,5.41
2022-11-29T01:04:02.831Z,5.48
2022-11-29T01:06:51.149Z,5.39
2022-11-29T01:09:36.130Z,5.47
2022-11-29T01:12:21.386Z,5.39
2022-11-29T01:15:07.928Z,5.38
2022-11-29T01:17:53.500Z,5.40
2022-11-29T01:20:38.692Z,5.29
2022-11-29T01:23:24.033Z,5.30
2022-11-29T01:26:15.846Z,5.07
2022-11-29T01:29:01.177Z,5.00
2022-11-29T01:31:46.459Z,5.09
2022-11-29T01:34:31.748Z,5.07
2022-11-29T01:37:16.953Z,5.18
2022-11-29T01:40:02.407Z,5.16
2022-11-29T01:42:47.653Z,5.15
2022-11-29T01:45:38.187Z,5.13
2022-11-29T01:48:29.724Z,5.15
2022-11-29T01:51:15.272Z,5.26
2022-11-29T01:54:00.679Z,5.23
2022-11-29T01:56:49.340Z,5.33
2022-11-29T01:59:37.357Z,5.33
2022-11-29T02:02:30.213Z,5.42
2022-11-29T02:05:18.306Z,5.40
2022-11-29T02:08:03.682Z,5.35
2022-11-29T02:11:37.165Z,5.31
2022-11-29T02:14:41.145Z,5.31
2022-11-29T02:18:14.643Z,5.45
2022-11-29T02:21:14.452Z,5.54
2022-11-29T02:24:18.100Z,5.56
2022-11-29T02:27:27.368Z,5.63
2022-11-29T02:30:23.697Z,5.65
2022-11-29T02:33:32.931Z,5.58
2022-11-29T02:36:24.338Z,5.72
2022-11-29T02:39:27.830Z,5.66
2022-11-29T02:42:52.568Z,5.87
2022-11-29T02:46:16.120Z,5.84
2022-11-29T02:49:25.424Z,5.70
2022-11-29T02:52:19.501Z,5.85
2022-11-29T02:55:31.242Z,5.84
2022-11-29T02:58:43.852Z,5.73
2022-11-29T03:01:29.034Z,5.83
2022-11-29T03:04:23.028Z,5.86
2022-11-29T03:07:38.819Z,5.91
2022-11-29T03:10:39.192Z,5.92
2022-11-29T03:13:42.961Z,5.78
2022-11-29T03:16:27.871Z,6.01
2022-11-29T03:20:00.686Z,5.96
2022-11-29T03:23:00.447Z,5.96
2022-11-29T03:26:14.463Z,5.98
2022-11-29T03:29:35.075Z,6.12
2022-11-29T03:32:48.087Z,6.16
2022-11-29T03:35:42.253Z,6.13
2022-11-29T03:38:32.732Z,6.19
2022-11-29T03:41:25.221Z,6.10
2022-11-29T03:44:18.211Z,6.16
2022-11-29T03:47:18.309Z,6.18
2022-11-29T03:50:06.280Z,6.23
2022-11-29T03:53:01.651Z,6.27
2022-11-29T03:55:54.497Z,6.32
2022-11-29T03:58:46.708Z,6.34
2022-11-29T04:01:44.629Z,6.18
2022-11-29T04:04:59.568Z,6.39
2022-11-29T04:08:04.016Z,6.42
2022-11-29T04:10:55.177Z,6.45
2022-11-29T04:13:58.791Z,6.46
2022-11-29T04:17:24.815Z,6.48
2022-11-29T04:20:48.540Z,6.48
2022-11-29T04:24:08.988Z,6.39
2022-11-29T04:27:33.518Z,6.37
2022-11-29T04:30:23.812Z,6.43
2022-11-29T04:33:30.787Z,6.57
2022-11-29T04:36:34.436Z,6.39
2022-11-29T04:39:43.289Z,6.59
2022-11-29T04:43:02.220Z,6.60
2022-11-29T04:45:53.154Z,6.53
2022-11-29T04:48:49.431Z,6.65
2022-11-29T04:52:03.381Z,6.65
2022-11-29T04:55:04.600Z,6.70
2022-11-29T04:57:58.257Z,6.71
2022-11-29T05:00:56.251Z,6.78
2022-11-29T05:04:15.804Z,6.75
2022-11-29T05:07:19.101Z,6.56
2022-11-29T05:10:33.939Z,6.82
2022-11-29T05:13:24.984Z,6.91
2022-11-29T05:16:22.306Z,6.95
2022-11-29T05:19:25.431Z,6.94
2022-11-29T05:22:44.606Z,6.98
2022-11-29T05:25:55.565Z,7.01
2022-11-29T05:29:05.963Z,7.07
2022-11-29T05:32:17.339Z,7.04
2022-11-29T05:35:24.375Z,7.07
2022-11-29T05:38:31.147Z,7.10
2022-11-29T05:41:25.215Z,7.13
2022-11-29T05:44:32.063Z,7.13
2022-11-29T05:47:31.271Z,6.94
2022-11-29T05:50:29.271Z,7.16
2022-11-29T05:53:33.344Z,7.17
2022-11-29T05:56:29.358Z,7.11
2022-11-29T05:59:21.898Z,7.13
2022-11-29T06:02:12.717Z,6.95
2022-11-29T06:05:20.459Z,7.14
2022-11-29T06:08:14.045Z,7.12
2022-11-29T06:11:24.343Z,7.20
2022-11-29T06:14:15.597Z,7.04
2022-11-29T06:17:25.989Z,7.13
2022-11-29T06:20:33.579Z,7.19
2022-11-29T06:23:24.642Z,7.17
2022-11-29T06:26:18.827Z,7.27
2022-11-29T06:29:23.655Z,7.28
2022-11-29T06:32:37.375Z,7.26
2022-11-29T06:35:47.538Z,7.27
2022-11-29T06:38:32.835Z,7.15
2022-11-29T06:41:21.889Z,7.28
2022-11-29T06:44:07.577Z,7.26
2022-11-29T06:47:10.698Z,7.19
2022-11-29T06:50:13.415Z,7.29
2022-11-29T06:53:10.497Z,7.25
2022-11-29T06:56:04.919Z,7.30
2022-11-29T06:59:21.366Z,7.25
2022-11-29T07:02:09.418Z,7.10
2022-11-29T07:05:32.757Z,7.20
2022-11-29T07:08:23.710Z,7.05
2022-11-29T07:11:13.380Z,7.09
2022-11-29T07:13:58.494Z,7.16
2022-11-29T07:16:54.437Z,7.18
2022-11-29T07:19:58.464Z,7.09
2022-11-29T07:22:57.079Z,7.09
2022-11-29T07:26:15.257Z,7.02
2022-11-29T07:29:22.271Z,7.07
2022-11-29T07:32:21.027Z,7.13
2022-11-29T07:35:45.222Z,7.11
2022-11-29T07:38:49.016Z,7.04
2022-11-29T07:42:15.969Z,7.03
2022-11-29T07:45:22.901Z,7.06
2022-11-29T07:48:10.940Z,6.81
2022-11-29T07:50:56.748Z,6.95
2022-11-29T07:53:44.170Z,6.95
2022-11-29T07:56:29.857Z,7.01
2022-11-29T07:59:14.867Z,7.00
2022-11-29T08:02:00.656Z,7.08
2022-11-29T08:04:45.752Z,7.01
2022-11-29T08:07:33.644Z,7.00
2022-11-29T08:10:18.988Z,6.99
2022-11-29T08:13:04.236Z,7.03
2022-11-29T08:15:49.369Z,7.06
2022-11-29T08:18:38.363Z,7.03
2022-11-29T08:21:23.383Z,7.06
2022-11-29T08:24:08.892Z,7.04
2022-11-29T08:26:54.338Z,7.05
2022-11-29T08:29:39.432Z,7.00
2022-11-29T08:32:25.342Z,7.11
2022-11-29T08:35:10.683Z,7.08
2022-11-29T08:37:55.863Z,7.03
2022-11-29T08:40:41.036Z,7.04
2022-11-29T08:43:25.986Z,6.87
2022-11-29T08:46:15.276Z,6.97
2022-11-29T08:49:03.166Z,7.07
2022-11-29T08:51:48.431Z,7.09
2022-11-29T08:54:33.388Z,7.07
2022-11-29T08:57:39.116Z,7.09
2022-11-29T09:00:24.600Z,7.05
2022-11-29T09:03:28.544Z,7.07
2022-11-29T09:06:15.645Z,7.06
2022-11-29T09:09:01.315Z,6.94
2022-11-29T09:11:49.354Z,6.96
2022-11-29T09:14:35.123Z,7.01
2022-11-29T09:17:20.442Z,7.03
2022-11-29T09:20:06.695Z,7.10
2022-11-29T09:22:51.650Z,7.15
2022-11-29T09:25:37.002Z,7.14
2022-11-29T09:28:22.188Z,7.21
2022-11-29T09:31:09.961Z,7.21
2022-11-29T09:33:56.005Z,7.07
2022-11-29T09:36:43.985Z,7.18
2022-11-29T09:39:29.074Z,7.12
2022-11-29T09:42:32.133Z,7.21
2022-11-29T09:45:20.712Z,7.07
2022-11-29T09:48:32.229Z,7.27
2022-11-29T09:51:44.185Z,7.29
2022-11-29T09:54:49.354Z,7.36
2022-11-29T09:57:34.614Z,7.33
2022-11-29T10:00:20.409Z,7.39
2022-11-29T10:03:21.394Z,7.61
2022-11-29T10:06:26.655Z,7.56
2022-11-29T10:09:21.138Z,7.50
2022-11-29T10:12:12.364Z,7.43
2022-11-29T10:15:11.082Z,7.57
2022-11-29T10:18:04.596Z,7.53
2022-11-29T10:20:51.571Z,7.63
2022-11-29T10:23:41.733Z,7.65
2022-11-29T10:26:33.575Z,7.63
2022-11-29T10:29:20.268Z,7.62
2022-11-29T10:32:14.196Z,7.58
2022-11-29T10:35:00.909Z,7.54
2022-11-29T10:38:07.748Z,7.58
2022-11-29T10:41:01.401Z,7.67
2022-11-29T10:43:46.788Z,7.66
2022-11-29T10:46:35.064Z,7.65
2022-11-29T10:49:24.848Z,7.68
2022-11-29T10:52:23.252Z,7.72
2022-11-29T10:55:13.542Z,7.77
2022-11-29T10:58:10.852Z,7.74
2022-11-29T11:01:01.992Z,7.69
2022-11-29T11:03:53.532Z,7.87
2022-11-29T11:06:56.215Z,7.87
2022-11-29T11:09:48.590Z,7.89
2022-11-29T11:12:34.975Z,7.87
2022-11-29T11:15:26.962Z,7.89
2022-11-29T11:18:23.965Z,7.86
2022-11-29T11:21:12.414Z,7.88
2022-11-29T11:24:01.919Z,7.89
2022-11-29T11:26:47.230Z,7.87
2022-11-29T11:29:38.912Z,7.90
2022-11-29T11:32:23.960Z,7.87
2022-11-29T11:35:23.854Z,7.73
2022-11-29T11:38:17.479Z,7.79
2022-11-29T11:41:21.532Z,7.95
2022-11-29T11:44:53.634Z,7.90
2022-11-29T11:47:45.197Z,7.98
2022-11-29T11:50:49.720Z,8.04
2022-11-29T11:53:37.795Z,8.10
2022-11-29T11:56:24.171Z,8.16
2022-11-29T11:59:20.221Z,7.97
2022-11-29T12:02:44.246Z,8.01
2022-11-29T12:05:29.637Z,8.07
2022-11-29T12:08:15.346Z,8.13
2022-11-29T12:11:07.646Z,8.17
2022-11-29T12:13:57.918Z,7.95
2022-11-29T12:16:43.165Z,8.11
2022-11-29T12:19:35.525Z,8.14
2022-11-29T12:22:27.248Z,8.12
2022-11-29T12:25:19.456Z,8.08
2022-11-29T12:28:08.836Z,8.11
2022-11-29T12:31:21.595Z,8.22
2022-11-29T12:34:34.473Z,8.17
2022-11-29T12:37:25.637Z,8.08
2022-11-29T12:40:40.668Z,7.98
2022-11-29T12:43:34.026Z,8.02
2022-11-29T12:46:28.020Z,8.07
2022-11-29T12:49:33.265Z,8.11
2022-11-29T12:52:55.290Z,8.14
2022-11-29T12:56:04.494Z,8.21
2022-11-29T12:59:13.294Z,8.22
2022-11-29T13:02:17.399Z,8.21
2022-11-29T13:05:20.411Z,8.12
2022-11-29T13:08:19.132Z,8.17
2022-11-29T13:11:22.778Z,8.02
2022-11-29T13:17:33.030Z,8.20
2022-11-29T13:20:33.611Z,8.17
2022-11-29T13:23:39.140Z,8.22
2022-11-29T13:26:27.366Z,8.17
2022-11-29T13:29:16.444Z,8.18
2022-11-29T13:32:04.177Z,8.14
2022-11-29T13:34:51.723Z,8.21
2022-11-29T13:37:50.578Z,8.24
2022-11-29T13:41:06.898Z,8.05
2022-11-29T13:43:59.823Z,8.23
2022-11-29T13:47:04.078Z,8.22
2022-11-29T13:49:55.694Z,8.23
2022-11-29T13:52:47.787Z,8.24
2022-11-29T13:55:34.182Z,8.15
2022-11-29T13:58:28.601Z,8.23
2022-11-29T14:01:14.476Z,8.28
2022-11-29T14:04:07.441Z,8.32
2022-11-29T14:07:15.344Z,8.27
2022-11-29T14:10:05.428Z,8.28
2022-11-29T14:12:56.587Z,8.26
2022-11-29T14:15:42.846Z,8.11
2022-11-29T14:18:37.027Z,8.21
2022-11-29T14:21:22.012Z,8.09
2022-11-29T14:24:54.680Z,8.24
2022-11-29T14:27:39.951Z,8.27
2022-11-29T14:30:30.171Z,8.25
2022-11-29T14:33:38.690Z,8.29
2022-11-29T14:36:45.417Z,8.28
2022-11-29T14:39:51.875Z,8.24
2022-11-29T14:42:46.820Z,8.22
2022-11-29T14:45:34.525Z,8.24
2022-11-29T14:48:31.743Z,8.24
2022-11-29T14:51:19.647Z,8.29
2022-11-29T14:54:19.514Z,8.19
2022-11-29T14:57:42.366Z,8.26
2022-11-29T15:00:42.033Z,8.15
2022-11-29T15:03:37.555Z,8.28
2022-11-29T15:06:26.799Z,8.25
2022-11-29T15:09:20.778Z,8.26
2022-11-29T15:12:14.837Z,8.31
2022-11-29T15:15:34.101Z,8.30
2022-11-29T15:18:37.707Z,8.30
2022-11-29T15:21:37.736Z,8.31
2022-11-29T15:24:28.320Z,8.31
2022-11-29T15:27:14.002Z,8.30
2022-11-29T15:29:59.902Z,8.22
2022-11-29T15:32:45.322Z,8.17
2022-11-29T15:35:31.579Z,8.22
2022-11-29T15:38:18.777Z,8.16
2022-11-29T15:41:04.170Z,8.27
2022-11-29T15:43:53.554Z,8.31
2022-11-29T15:46:38.835Z,8.30
2022-11-29T15:49:26.132Z,8.30
2022-11-29T15:52:20.628Z,8.28
2022-11-29T15:55:13.099Z,8.31
2022-11-29T15:58:05.363Z,8.26
2022-11-29T16:00:54.596Z,8.25
2022-11-29T16:03:44.711Z,8.23
2022-11-29T16:06:40.660Z,8.26
2022-11-29T16:09:58.247Z,8.25
2022-11-29T16:13:02.277Z,8.24
2022-11-29T16:15:47.565Z,8.26
2022-11-29T16:18:33.688Z,8.20
2022-11-29T16:21:32.172Z,8.25
2022-11-29T16:24:21.682Z,8.32
2022-11-29T16:27:08.032Z,8.23
2022-11-29T16:29:55.129Z,8.21
2022-11-29T16:32:44.112Z,8.22
2022-11-29T16:35:33.735Z,8.15
2022-11-29T16:38:23.456Z,8.21
2022-11-29T16:41:21.540Z,8.22
2022-11-29T16:44:38.836Z,8.20
2022-11-29T16:47:27.234Z,8.20
2022-11-29T16:50:18.934Z,8.27
2022-11-29T16:53:40.003Z,8.34
2022-11-29T16:56:27.738Z,8.35
2022-11-29T16:59:20.827Z,8.41
2022-11-29T17:02:14.440Z,8.39
2022-11-29T17:04:59.495Z,8.36
2022-11-29T17:07:45.508Z,8.36
2022-11-29T17:10:30.964Z,8.34
2022-11-29T17:13:16.280Z,8.35
2022-11-29T17:16:01.450Z,8.39
2022-11-29T17:18:47.183Z,8.56
2022-11-29T17:21:32.290Z,8.52
2022-11-29T17:24:20.319Z,8.37
2022-11-29T17:27:05.337Z,8.35
2022-11-29T17:29:50.405Z,8.44
2022-11-29T17:32:35.782Z,8.42
2022-11-29T17:35:20.766Z,8.42
2022-11-29T17:38:05.845Z,8.44
2022-11-29T17:40:51.195Z,8.31
2022-11-29T17:43:37.038Z,8.24
2022-11-29T17:46:28.192Z,8.20
2022-11-29T17:49:13.274Z,7.95
2022-11-29T17:51:58.209Z,8.12
2022-11-29T17:54:44.122Z,8.05
2022-11-29T17:57:29.347Z,8.11
2022-11-29T18:00:15.714Z,8.15
2022-11-29T18:03:02.518Z,8.12
2022-11-29T18:05:47.485Z,8.20
2022-11-29T18:08:32.655Z,8.16
2022-11-29T18:11:25.339Z,8.17
2022-11-29T18:14:11.774Z,7.94
2022-11-29T18:16:56.621Z,8.14
2022-11-29T18:19:42.450Z,8.14
2022-11-29T18:22:27.572Z,8.13
2022-11-29T18:25:37.760Z,8.10
2022-11-29T18:28:17.619Z,8.11
2022-11-29T18:31:12.342Z,8.10
2022-11-29T18:34:00.136Z,8.09
2022-11-29T18:36:47.196Z,8.07
2022-11-29T18:39:32.423Z,8.06
2022-11-29T18:42:17.786Z,8.01
2022-11-29T18:45:03.179Z,7.97
2022-11-29T18:47:48.388Z,8.03
2022-11-29T18:50:33.681Z,8.02
2022-11-29T18:53:18.964Z,7.98
2022-11-29T18:56:15.337Z,8.01
2022-11-29T18:59:07.100Z,8.04
2022-11-29T19:01:52.068Z,7.92
2022-11-29T19:04:37.164Z,8.00
2022-11-29T19:07:22.191Z,7.99
2022-11-29T19:10:08.139Z,7.92
2022-11-29T19:12:53.379Z,7.86
2022-11-29T19:15:38.631Z,7.87
2022-11-29T19:18:23.699Z,7.85
2022-11-29T19:21:14.601Z,7.90
2022-11-29T19:24:02.674Z,7.99
2022-11-29T19:26:48.872Z,7.99
2022-11-29T19:29:39.385Z,7.88
2022-11-29T19:32:24.602Z,7.98
2022-11-29T19:35:09.771Z,7.97
2022-11-29T19:37:54.937Z,7.98
2022-11-29T19:40:40.082Z,7.93
2022-11-29T19:43:25.155Z,7.99
2022-11-29T19:46:24.968Z,7.99
2022-11-29T19:49:10.176Z,8.05
2022-11-29T19:51:55.335Z,7.98
2022-11-29T19:54:40.617Z,8.05
2022-11-29T19:57:25.617Z,7.98
2022-11-29T20:00:11.590Z,8.09
2022-11-29T20:02:56.933Z,8.08
2022-11-29T20:05:42.438Z,8.08
2022-11-29T20:08:28.566Z,8.08
2022-11-29T20:11:16.177Z,8.10
2022-11-29T20:14:04.472Z,7.95
2022-11-29T20:16:49.891Z,8.05
2022-11-29T20:19:35.050Z,8.02
2022-11-29T20:22:20.235Z,8.02
2022-11-29T20:25:06.277Z,8.00
2022-11-29T20:27:51.394Z,7.97
2022-11-29T20:30:36.625Z,7.99
2022-11-29T20:33:24.494Z,8.02
2022-11-29T20:36:33.364Z,8.04
2022-11-29T20:39:30.849Z,8.03
2022-11-29T20:42:37.613Z,8.05
2022-11-29T20:45:23.973Z,7.99
2022-11-29T20:48:21.757Z,8.00
2022-11-29T20:51:07.101Z,7.99
2022-11-29T20:53:52.372Z,7.90
2022-11-29T20:56:37.952Z,7.98
2022-11-29T20:59:23.203Z,7.95
2022-11-29T21:02:08.401Z,7.95
2022-11-29T21:04:53.398Z,7.90
2022-11-29T21:07:38.689Z,7.95
2022-11-29T21:10:23.872Z,7.95
2022-11-29T21:13:12.268Z,7.97
2022-11-29T21:15:58.378Z,7.93
2022-11-29T21:18:43.773Z,7.82
2022-11-29T21:21:37.406Z,7.90
2022-11-29T21:24:47.560Z,7.92
2022-11-29T21:27:34.372Z,7.93
2022-11-29T21:30:21.798Z,7.83
2022-11-29T21:33:08.285Z,7.86
2022-11-29T21:35:57.820Z,7.90
2022-11-29T21:38:42.874Z,7.89
2022-11-29T21:41:28.189Z,7.90
2022-11-29T21:44:13.422Z,7.77
2022-11-29T21:46:58.709Z,7.81
2022-11-29T21:49:43.783Z,7.76
2022-11-29T21:52:29.010Z,7.84
2022-11-29T21:55:14.316Z,7.71
2022-11-29T21:57:59.178Z,7.82
2022-11-29T22:00:45.226Z,7.85
2022-11-29T22:03:30.103Z,7.83
2022-11-29T22:06:20.681Z,7.88
2022-11-29T22:09:07.576Z,7.84
2022-11-29T22:11:55.952Z,7.85
2022-11-29T22:14:41.083Z,7.91
2022-11-29T22:17:26.066Z,7.84
2022-11-29T22:20:11.884Z,7.83
2022-11-29T22:22:58.796Z,7.90
2022-11-29T22:25:44.058Z,7.83
2022-11-29T22:28:29.716Z,7.91
2022-11-29T22:31:15.014Z,7.93
2022-11-29T22:34:00.311Z,7.94
2022-11-29T22:36:45.722Z,7.91
2022-11-29T22:39:30.983Z,7.97
2022-11-29T22:42:16.179Z,8.04
2022-11-29T22:45:03.743Z,8.03
2022-11-29T22:47:48.607Z,7.94
2022-11-29T22:50:33.835Z,7.97
2022-11-29T22:53:19.258Z,7.99
2022-11-29T22:56:06.622Z,7.97
2022-11-29T22:58:51.923Z,7.97
2022-11-29T23:01:39.399Z,7.93
2022-11-29T23:04:24.604Z,7.90
2022-11-29T23:07:09.668Z,7.90
2022-11-29T23:09:55.952Z,7.78
2022-11-29T23:12:47.489Z,7.94
2022-11-29T23:15:32.507Z,7.93
2022-11-29T23:18:18.035Z,7.93
2022-11-29T23:21:05.675Z,7.93
2022-11-29T23:23:56.364Z,7.89
2022-11-29T23:26:45.868Z,7.90
2022-11-29T23:29:31.193Z,7.89
2022-11-29T23:32:16.392Z,7.92
2022-11-29T23:35:01.727Z,7.82
2022-11-29T23:37:46.823Z,7.93
2022-11-29T23:40:31.781Z,7.89
2022-11-29T23:43:16.930Z,7.92
2022-11-29T23:46:10.146Z,7.89
2022-11-29T23:48:55.344Z,7.95
2022-11-29T23:51:40.572Z,7.90
2022-11-29T23:54:25.709Z,7.94
2022-11-29T23:57:10.950Z,7.81
2022-11-29T23:59:56.737Z,7.93
